Terminal Aerodrome Forecast
Issued by NWS

Home | Current Version | Previous Version | Text Only | Print | Product List | Glossary On
Versions: 1 2 3 4 5 6 7 8 9 10 11 12
000
FTUS43 KMPX 200520
TAFRNH
TAF
KRNH 200520Z 2006/2106 17005KT P6SM SKC WS020/22040KT
     FM201400 18007KT P6SM SKC
     FM202000 17013G22KT P6SM SKC
     FM210200 17010KT P6SM SCT200 WS020/18040KT=

USA.gov is the U.S. government's official web portal to all federal, state and local government web resources and services.